sensor_id;sensor_type;location;lat;lon;timestamp;P1;durP1;ratioP1;P2;durP2;ratioP2
17330;SDS011;8783;52.448;4.638;2023-12-14T00:00:24;7.38;;;3.35;;
17330;SDS011;8783;52.448;4.638;2023-12-14T00:02:50;9.00;;;3.55;;
17330;SDS011;8783;52.448;4.638;2023-12-14T00:05:15;7.18;;;3.17;;
17330;SDS011;8783;52.448;4.638;2023-12-14T00:07:41;6.88;;;3.20;;
17330;SDS011;8783;52.448;4.638;2023-12-14T00:10:07;6.10;;;2.88;;
17330;SDS011;8783;52.448;4.638;2023-12-14T00:12:32;5.07;;;3.03;;
17330;SDS011;8783;52.448;4.638;2023-12-14T00:14:58;4.65;;;2.80;;
17330;SDS011;8783;52.448;4.638;2023-12-14T00:17:24;5.50;;;2.95;;
17330;SDS011;8783;52.448;4.638;2023-12-14T00:19:49;6.07;;;2.63;;
17330;SDS011;8783;52.448;4.638;2023-12-14T00:22:15;6.97;;;2.50;;
17330;SDS011;8783;52.448;4.638;2023-12-14T00:24:41;5.55;;;3.00;;
17330;SDS011;8783;52.448;4.638;2023-12-14T00:27:07;5.95;;;2.83;;
17330;SDS011;8783;52.448;4.638;2023-12-14T00:29:32;5.63;;;2.80;;
17330;SDS011;8783;52.448;4.638;2023-12-14T00:31:58;6.72;;;3.28;;
17330;SDS011;8783;52.448;4.638;2023-12-14T00:34:23;5.40;;;2.50;;
17330;SDS011;8783;52.448;4.638;2023-12-14T00:36:49;5.20;;;2.40;;
17330;SDS011;8783;52.448;4.638;2023-12-14T00:39:14;6.80;;;2.75;;
17330;SDS011;8783;52.448;4.638;2023-12-14T00:41:40;6.57;;;2.47;;
17330;SDS011;8783;52.448;4.638;2023-12-14T00:44:06;4.35;;;2.25;;
17330;SDS011;8783;52.448;4.638;2023-12-14T00:46:31;5.22;;;2.58;;
17330;SDS011;8783;52.448;4.638;2023-12-14T00:48:57;4.70;;;2.50;;
17330;SDS011;8783;52.448;4.638;2023-12-14T00:51:22;4.78;;;2.00;;
17330;SDS011;8783;52.448;4.638;2023-12-14T00:53:48;6.38;;;2.78;;
17330;SDS011;8783;52.448;4.638;2023-12-14T00:56:13;5.60;;;2.33;;
17330;SDS011;8783;52.448;4.638;2023-12-14T00:58:39;4.97;;;2.38;;
17330;SDS011;8783;52.448;4.638;2023-12-14T01:01:05;3.85;;;2.30;;
17330;SDS011;8783;52.448;4.638;2023-12-14T01:03:30;4.65;;;2.38;;
17330;SDS011;8783;52.448;4.638;2023-12-14T01:05:56;7.10;;;2.78;;
17330;SDS011;8783;52.448;4.638;2023-12-14T01:08:21;4.40;;;2.10;;
17330;SDS011;8783;52.448;4.638;2023-12-14T01:10:47;3.92;;;1.70;;
17330;SDS011;8783;52.448;4.638;2023-12-14T01:13:13;5.68;;;2.88;;
17330;SDS011;8783;52.448;4.638;2023-12-14T01:15:38;5.03;;;2.33;;
17330;SDS011;8783;52.448;4.638;2023-12-14T01:18:04;4.50;;;2.30;;
17330;SDS011;8783;52.448;4.638;2023-12-14T01:20:29;6.57;;;2.00;;
17330;SDS011;8783;52.448;4.638;2023-12-14T01:22:55;3.92;;;2.00;;
17330;SDS011;8783;52.448;4.638;2023-12-14T01:25:20;3.97;;;2.17;;
17330;SDS011;8783;52.448;4.638;2023-12-14T01:27:46;4.90;;;2.15;;
17330;SDS011;8783;52.448;4.638;2023-12-14T01:30:12;5.28;;;2.40;;
17330;SDS011;8783;52.448;4.638;2023-12-14T01:32:37;3.40;;;1.85;;
17330;SDS011;8783;52.448;4.638;2023-12-14T01:35:03;4.07;;;2.15;;
17330;SDS011;8783;52.448;4.638;2023-12-14T01:37:29;3.92;;;2.10;;
17330;SDS011;8783;52.448;4.638;2023-12-14T01:39:55;3.92;;;2.00;;
17330;SDS011;8783;52.448;4.638;2023-12-14T01:42:20;3.80;;;2.00;;
17330;SDS011;8783;52.448;4.638;2023-12-14T01:44:46;4.50;;;1.98;;
17330;SDS011;8783;52.448;4.638;2023-12-14T01:47:12;2.85;;;1.60;;
17330;SDS011;8783;52.448;4.638;2023-12-14T01:49:37;4.07;;;1.83;;
17330;SDS011;8783;52.448;4.638;2023-12-14T01:52:03;3.58;;;1.90;;
17330;SDS011;8783;52.448;4.638;2023-12-14T01:54:29;3.72;;;1.75;;
17330;SDS011;8783;52.448;4.638;2023-12-14T01:56:55;3.40;;;1.80;;
17330;SDS011;8783;52.448;4.638;2023-12-14T01:59:20;3.58;;;1.85;;
17330;SDS011;8783;52.448;4.638;2023-12-14T02:01:47;2.72;;;1.60;;
17330;SDS011;8783;52.448;4.638;2023-12-14T02:04:18;3.25;;;1.60;;
17330;SDS011;8783;52.448;4.638;2023-12-14T02:06:43;3.50;;;1.90;;
17330;SDS011;8783;52.448;4.638;2023-12-14T02:09:09;2.63;;;1.58;;
17330;SDS011;8783;52.448;4.638;2023-12-14T02:11:35;3.17;;;1.63;;
17330;SDS011;8783;52.448;4.638;2023-12-14T02:14:05;2.97;;;1.73;;
17330;SDS011;8783;52.448;4.638;2023-12-14T02:16:31;2.70;;;1.40;;
17330;SDS011;8783;52.448;4.638;2023-12-14T02:18:57;4.45;;;1.58;;
17330;SDS011;8783;52.448;4.638;2023-12-14T02:21:22;3.40;;;1.55;;
17330;SDS011;8783;52.448;4.638;2023-12-14T02:23:48;2.63;;;1.58;;
17330;SDS011;8783;52.448;4.638;2023-12-14T02:26:14;2.60;;;1.55;;
17330;SDS011;8783;52.448;4.638;2023-12-14T02:28:39;3.40;;;1.92;;
17330;SDS011;8783;52.448;4.638;2023-12-14T02:31:05;3.17;;;1.60;;
17330;SDS011;8783;52.448;4.638;2023-12-14T02:33:31;3.33;;;1.60;;
17330;SDS011;8783;52.448;4.638;2023-12-14T02:35:56;3.28;;;1.63;;
17330;SDS011;8783;52.448;4.638;2023-12-14T02:38:22;3.58;;;1.55;;
17330;SDS011;8783;52.448;4.638;2023-12-14T02:40:48;3.10;;;1.80;;
17330;SDS011;8783;52.448;4.638;2023-12-14T02:43:16;3.20;;;1.70;;
17330;SDS011;8783;52.448;4.638;2023-12-14T02:45:41;2.67;;;1.50;;
17330;SDS011;8783;52.448;4.638;2023-12-14T02:48:07;2.13;;;1.30;;
17330;SDS011;8783;52.448;4.638;2023-12-14T02:50:32;3.55;;;1.20;;
17330;SDS011;8783;52.448;4.638;2023-12-14T02:52:58;2.30;;;1.45;;
17330;SDS011;8783;52.448;4.638;2023-12-14T02:55:23;3.22;;;1.50;;
17330;SDS011;8783;52.448;4.638;2023-12-14T02:57:49;2.42;;;1.23;;
17330;SDS011;8783;52.448;4.638;2023-12-14T03:00:15;2.97;;;1.45;;
17330;SDS011;8783;52.448;4.638;2023-12-14T03:02:40;3.03;;;1.45;;
17330;SDS011;8783;52.448;4.638;2023-12-14T03:05:06;2.78;;;1.30;;
17330;SDS011;8783;52.448;4.638;2023-12-14T03:07:32;2.75;;;1.23;;
17330;SDS011;8783;52.448;4.638;2023-12-14T03:09:57;2.22;;;1.20;;
17330;SDS011;8783;52.448;4.638;2023-12-14T03:12:23;2.75;;;1.20;;
17330;SDS011;8783;52.448;4.638;2023-12-14T03:14:49;1.67;;;1.15;;
17330;SDS011;8783;52.448;4.638;2023-12-14T03:17:14;1.75;;;1.13;;
17330;SDS011;8783;52.448;4.638;2023-12-14T03:19:41;3.58;;;1.30;;
17330;SDS011;8783;52.448;4.638;2023-12-14T03:22:07;3.28;;;1.20;;
17330;SDS011;8783;52.448;4.638;2023-12-14T03:24:34;2.10;;;1.20;;
17330;SDS011;8783;52.448;4.638;2023-12-14T03:27:01;2.30;;;1.50;;
17330;SDS011;8783;52.448;4.638;2023-12-14T03:29:27;2.33;;;1.33;;
17330;SDS011;8783;52.448;4.638;2023-12-14T03:31:54;2.75;;;1.08;;
17330;SDS011;8783;52.448;4.638;2023-12-14T03:34:22;2.15;;;1.33;;
17330;SDS011;8783;52.448;4.638;2023-12-14T03:36:48;3.80;;;1.15;;
17330;SDS011;8783;52.448;4.638;2023-12-14T03:39:14;3.25;;;1.30;;
17330;SDS011;8783;52.448;4.638;2023-12-14T03:41:41;2.20;;;1.30;;
17330;SDS011;8783;52.448;4.638;2023-12-14T03:44:07;2.88;;;1.23;;
17330;SDS011;8783;52.448;4.638;2023-12-14T03:46:33;1.60;;;1.10;;
17330;SDS011;8783;52.448;4.638;2023-12-14T03:48:59;2.53;;;1.10;;
17330;SDS011;8783;52.448;4.638;2023-12-14T03:51:25;2.70;;;1.30;;
17330;SDS011;8783;52.448;4.638;2023-12-14T03:53:50;2.30;;;1.27;;
17330;SDS011;8783;52.448;4.638;2023-12-14T03:56:16;2.78;;;1.33;;
17330;SDS011;8783;52.448;4.638;2023-12-14T03:58:42;3.42;;;1.15;;
17330;SDS011;8783;52.448;4.638;2023-12-14T04:01:07;2.38;;;1.23;;
17330;SDS011;8783;52.448;4.638;2023-12-14T04:03:33;2.28;;;1.02;;
17330;SDS011;8783;52.448;4.638;2023-12-14T04:05:58;2.70;;;1.00;;
17330;SDS011;8783;52.448;4.638;2023-12-14T04:08:24;1.85;;;1.10;;
17330;SDS011;8783;52.448;4.638;2023-12-14T04:10:49;2.22;;;1.20;;
17330;SDS011;8783;52.448;4.638;2023-12-14T04:13:15;2.85;;;1.17;;
17330;SDS011;8783;52.448;4.638;2023-12-14T04:15:41;2.22;;;1.10;;
17330;SDS011;8783;52.448;4.638;2023-12-14T04:18:07;1.63;;;0.80;;
17330;SDS011;8783;52.448;4.638;2023-12-14T04:20:33;1.70;;;1.20;;
17330;SDS011;8783;52.448;4.638;2023-12-14T04:22:59;1.70;;;1.00;;
17330;SDS011;8783;52.448;4.638;2023-12-14T04:25:24;2.22;;;1.10;;
17330;SDS011;8783;52.448;4.638;2023-12-14T04:27:50;1.85;;;1.02;;
17330;SDS011;8783;52.448;4.638;2023-12-14T04:30:16;1.55;;;0.95;;
17330;SDS011;8783;52.448;4.638;2023-12-14T04:32:41;1.50;;;0.80;;
17330;SDS011;8783;52.448;4.638;2023-12-14T04:35:07;1.70;;;1.00;;
17330;SDS011;8783;52.448;4.638;2023-12-14T04:37:33;2.15;;;0.98;;
17330;SDS011;8783;52.448;4.638;2023-12-14T04:39:59;1.95;;;0.90;;
17330;SDS011;8783;52.448;4.638;2023-12-14T04:42:25;2.60;;;1.10;;
17330;SDS011;8783;52.448;4.638;2023-12-14T04:44:51;1.27;;;0.80;;
17330;SDS011;8783;52.448;4.638;2023-12-14T04:47:16;1.60;;;0.90;;
17330;SDS011;8783;52.448;4.638;2023-12-14T04:49:42;2.33;;;1.20;;
17330;SDS011;8783;52.448;4.638;2023-12-14T04:52:08;2.45;;;1.08;;
17330;SDS011;8783;52.448;4.638;2023-12-14T04:54:33;2.33;;;1.08;;
17330;SDS011;8783;52.448;4.638;2023-12-14T04:57:02;1.73;;;1.10;;
17330;SDS011;8783;52.448;4.638;2023-12-14T04:59:28;1.30;;;0.82;;
17330;SDS011;8783;52.448;4.638;2023-12-14T05:01:54;3.60;;;1.10;;
17330;SDS011;8783;52.448;4.638;2023-12-14T05:04:20;1.60;;;0.93;;
17330;SDS011;8783;52.448;4.638;2023-12-14T05:06:45;2.60;;;0.93;;
17330;SDS011;8783;52.448;4.638;2023-12-14T05:09:11;1.63;;;0.80;;
17330;SDS011;8783;52.448;4.638;2023-12-14T05:11:37;1.50;;;0.88;;
17330;SDS011;8783;52.448;4.638;2023-12-14T05:14:04;1.23;;;0.82;;
17330;SDS011;8783;52.448;4.638;2023-12-14T05:16:30;1.50;;;0.60;;
17330;SDS011;8783;52.448;4.638;2023-12-14T05:18:55;2.42;;;1.15;;
17330;SDS011;8783;52.448;4.638;2023-12-14T05:21:22;1.38;;;0.80;;
17330;SDS011;8783;52.448;4.638;2023-12-14T05:23:48;1.77;;;0.90;;
17330;SDS011;8783;52.448;4.638;2023-12-14T05:26:13;1.42;;;0.95;;
17330;SDS011;8783;52.448;4.638;2023-12-14T05:28:39;1.10;;;0.60;;
17330;SDS011;8783;52.448;4.638;2023-12-14T05:31:05;1.80;;;0.93;;
17330;SDS011;8783;52.448;4.638;2023-12-14T05:33:31;2.90;;;0.90;;
17330;SDS011;8783;52.448;4.638;2023-12-14T05:35:58;2.53;;;0.98;;
17330;SDS011;8783;52.448;4.638;2023-12-14T05:38:24;0.98;;;0.63;;
17330;SDS011;8783;52.448;4.638;2023-12-14T05:40:50;2.63;;;1.00;;
17330;SDS011;8783;52.448;4.638;2023-12-14T05:43:15;1.50;;;1.02;;
17330;SDS011;8783;52.448;4.638;2023-12-14T05:45:41;1.33;;;0.80;;
17330;SDS011;8783;52.448;4.638;2023-12-14T05:48:06;1.83;;;0.70;;
17330;SDS011;8783;52.448;4.638;2023-12-14T05:50:32;2.67;;;0.98;;
17330;SDS011;8783;52.448;4.638;2023-12-14T05:52:58;1.65;;;0.90;;
17330;SDS011;8783;52.448;4.638;2023-12-14T05:55:23;1.98;;;1.00;;
17330;SDS011;8783;52.448;4.638;2023-12-14T05:57:49;1.83;;;0.80;;
17330;SDS011;8783;52.448;4.638;2023-12-14T06:00:15;1.45;;;0.90;;
17330;SDS011;8783;52.448;4.638;2023-12-14T06:02:43;1.58;;;0.70;;
17330;SDS011;8783;52.448;4.638;2023-12-14T06:05:08;1.95;;;0.73;;
17330;SDS011;8783;52.448;4.638;2023-12-14T06:07:34;2.67;;;0.82;;
17330;SDS011;8783;52.448;4.638;2023-12-14T06:10:00;0.88;;;0.65;;
17330;SDS011;8783;52.448;4.638;2023-12-14T06:12:26;1.10;;;0.70;;
17330;SDS011;8783;52.448;4.638;2023-12-14T06:14:52;2.67;;;0.90;;
17330;SDS011;8783;52.448;4.638;2023-12-14T06:17:17;2.20;;;0.88;;
17330;SDS011;8783;52.448;4.638;2023-12-14T06:19:43;1.80;;;0.80;;
17330;SDS011;8783;52.448;4.638;2023-12-14T06:22:09;1.95;;;0.90;;
17330;SDS011;8783;52.448;4.638;2023-12-14T06:24:34;2.45;;;0.88;;
17330;SDS011;8783;52.448;4.638;2023-12-14T06:27:00;1.95;;;0.95;;
17330;SDS011;8783;52.448;4.638;2023-12-14T06:29:25;3.10;;;1.10;;
17330;SDS011;8783;52.448;4.638;2023-12-14T06:31:51;1.77;;;0.80;;
17330;SDS011;8783;52.448;4.638;2023-12-14T06:34:17;3.15;;;0.80;;
17330;SDS011;8783;52.448;4.638;2023-12-14T06:36:43;1.60;;;0.70;;
17330;SDS011;8783;52.448;4.638;2023-12-14T06:39:09;3.42;;;0.80;;
17330;SDS011;8783;52.448;4.638;2023-12-14T06:41:35;1.70;;;0.80;;
17330;SDS011;8783;52.448;4.638;2023-12-14T06:44:01;2.10;;;0.82;;
17330;SDS011;8783;52.448;4.638;2023-12-14T06:46:27;1.20;;;0.82;;
17330;SDS011;8783;52.448;4.638;2023-12-14T06:48:53;3.85;;;1.05;;
17330;SDS011;8783;52.448;4.638;2023-12-14T06:51:20;2.85;;;0.93;;
17330;SDS011;8783;52.448;4.638;2023-12-14T06:53:46;1.48;;;0.75;;
17330;SDS011;8783;52.448;4.638;2023-12-14T06:56:12;1.67;;;0.70;;
17330;SDS011;8783;52.448;4.638;2023-12-14T06:58:39;2.30;;;1.00;;
17330;SDS011;8783;52.448;4.638;2023-12-14T07:01:05;3.25;;;0.63;;
17330;SDS011;8783;52.448;4.638;2023-12-14T07:03:31;2.40;;;0.90;;
17330;SDS011;8783;52.448;4.638;2023-12-14T07:05:57;3.47;;;0.73;;
17330;SDS011;8783;52.448;4.638;2023-12-14T07:08:23;2.05;;;0.88;;
17330;SDS011;8783;52.448;4.638;2023-12-14T07:10:49;1.45;;;0.57;;
17330;SDS011;8783;52.448;4.638;2023-12-14T07:13:15;2.78;;;0.90;;
17330;SDS011;8783;52.448;4.638;2023-12-14T07:15:40;1.20;;;0.65;;
17330;SDS011;8783;52.448;4.638;2023-12-14T07:18:06;1.67;;;0.73;;
17330;SDS011;8783;52.448;4.638;2023-12-14T07:20:31;1.58;;;0.60;;
17330;SDS011;8783;52.448;4.638;2023-12-14T07:22:57;1.50;;;0.70;;
17330;SDS011;8783;52.448;4.638;2023-12-14T07:25:23;2.45;;;0.80;;
17330;SDS011;8783;52.448;4.638;2023-12-14T07:27:48;1.15;;;0.60;;
17330;SDS011;8783;52.448;4.638;2023-12-14T07:30:14;11.75;;;1.00;;
17330;SDS011;8783;52.448;4.638;2023-12-14T07:32:40;2.55;;;0.98;;
17330;SDS011;8783;52.448;4.638;2023-12-14T07:35:05;1.58;;;0.70;;
17330;SDS011;8783;52.448;4.638;2023-12-14T07:37:31;2.60;;;0.70;;
17330;SDS011;8783;52.448;4.638;2023-12-14T07:39:57;2.58;;;0.93;;
17330;SDS011;8783;52.448;4.638;2023-12-14T07:42:23;3.28;;;1.23;;
17330;SDS011;8783;52.448;4.638;2023-12-14T07:44:49;8.38;;;2.45;;
17330;SDS011;8783;52.448;4.638;2023-12-14T07:47:14;12.05;;;2.80;;
17330;SDS011;8783;52.448;4.638;2023-12-14T07:49:40;9.07;;;2.78;;
17330;SDS011;8783;52.448;4.638;2023-12-14T07:52:06;11.50;;;3.00;;
17330;SDS011;8783;52.448;4.638;2023-12-14T07:54:31;14.32;;;2.97;;
17330;SDS011;8783;52.448;4.638;2023-12-14T07:56:57;10.25;;;2.85;;
17330;SDS011;8783;52.448;4.638;2023-12-14T07:59:23;12.70;;;3.33;;
17330;SDS011;8783;52.448;4.638;2023-12-14T08:01:48;13.38;;;3.30;;
17330;SDS011;8783;52.448;4.638;2023-12-14T08:04:14;9.63;;;2.90;;
17330;SDS011;8783;52.448;4.638;2023-12-14T08:06:40;6.78;;;2.83;;
17330;SDS011;8783;52.448;4.638;2023-12-14T08:09:06;9.40;;;2.60;;
17330;SDS011;8783;52.448;4.638;2023-12-14T08:11:32;8.20;;;2.78;;
17330;SDS011;8783;52.448;4.638;2023-12-14T08:13:58;12.40;;;2.90;;
17330;SDS011;8783;52.448;4.638;2023-12-14T08:16:24;18.60;;;3.63;;
17330;SDS011;8783;52.448;4.638;2023-12-14T08:18:49;20.77;;;3.17;;
17330;SDS011;8783;52.448;4.638;2023-12-14T08:21:16;16.67;;;3.17;;
17330;SDS011;8783;52.448;4.638;2023-12-14T08:23:42;11.48;;;3.15;;
17330;SDS011;8783;52.448;4.638;2023-12-14T08:26:08;6.72;;;2.50;;
17330;SDS011;8783;52.448;4.638;2023-12-14T08:28:36;8.60;;;2.88;;
17330;SDS011;8783;52.448;4.638;2023-12-14T08:31:02;6.80;;;2.67;;
17330;SDS011;8783;52.448;4.638;2023-12-14T08:33:29;9.32;;;2.60;;
17330;SDS011;8783;52.448;4.638;2023-12-14T08:35:55;5.32;;;2.55;;
17330;SDS011;8783;52.448;4.638;2023-12-14T08:38:21;8.68;;;2.67;;
17330;SDS011;8783;52.448;4.638;2023-12-14T08:40:47;8.52;;;2.72;;
17330;SDS011;8783;52.448;4.638;2023-12-14T08:43:12;3.50;;;2.13;;
17330;SDS011;8783;52.448;4.638;2023-12-14T08:45:38;11.65;;;2.85;;
17330;SDS011;8783;52.448;4.638;2023-12-14T08:48:04;6.63;;;2.65;;
17330;SDS011;8783;52.448;4.638;2023-12-14T08:50:30;8.30;;;2.25;;
17330;SDS011;8783;52.448;4.638;2023-12-14T08:52:55;7.15;;;2.60;;
17330;SDS011;8783;52.448;4.638;2023-12-14T08:55:23;5.35;;;2.08;;
17330;SDS011;8783;52.448;4.638;2023-12-14T08:57:49;4.55;;;2.42;;
17330;SDS011;8783;52.448;4.638;2023-12-14T09:00:15;4.25;;;2.42;;
17330;SDS011;8783;52.448;4.638;2023-12-14T09:02:42;6.35;;;2.33;;
17330;SDS011;8783;52.448;4.638;2023-12-14T09:05:09;5.72;;;1.73;;
17330;SDS011;8783;52.448;4.638;2023-12-14T09:07:34;5.07;;;2.13;;
17330;SDS011;8783;52.448;4.638;2023-12-14T09:10:00;4.60;;;2.30;;
17330;SDS011;8783;52.448;4.638;2023-12-14T09:12:26;5.90;;;2.17;;
17330;SDS011;8783;52.448;4.638;2023-12-14T09:14:51;3.78;;;2.03;;
17330;SDS011;8783;52.448;4.638;2023-12-14T09:17:17;4.80;;;2.10;;
17330;SDS011;8783;52.448;4.638;2023-12-14T09:19:43;5.07;;;1.80;;
17330;SDS011;8783;52.448;4.638;2023-12-14T09:22:08;4.10;;;1.70;;
17330;SDS011;8783;52.448;4.638;2023-12-14T09:24:34;3.42;;;1.83;;
17330;SDS011;8783;52.448;4.638;2023-12-14T09:27:00;3.45;;;1.90;;
17330;SDS011;8783;52.448;4.638;2023-12-14T09:29:25;4.03;;;1.65;;
17330;SDS011;8783;52.448;4.638;2023-12-14T09:31:51;3.42;;;1.70;;
17330;SDS011;8783;52.448;4.638;2023-12-14T09:34:16;5.13;;;2.10;;
17330;SDS011;8783;52.448;4.638;2023-12-14T09:36:42;2.80;;;1.80;;
17330;SDS011;8783;52.448;4.638;2023-12-14T09:39:08;3.03;;;1.80;;
17330;SDS011;8783;52.448;4.638;2023-12-14T09:41:35;4.55;;;2.30;;
17330;SDS011;8783;52.448;4.638;2023-12-14T09:44:05;5.95;;;2.00;;
17330;SDS011;8783;52.448;4.638;2023-12-14T09:46:33;6.05;;;2.10;;
17330;SDS011;8783;52.448;4.638;2023-12-14T09:49:09;3.15;;;1.88;;
17330;SDS011;8783;52.448;4.638;2023-12-14T09:51:36;3.00;;;1.65;;
17330;SDS011;8783;52.448;4.638;2023-12-14T09:54:01;4.22;;;1.70;;
17330;SDS011;8783;52.448;4.638;2023-12-14T09:56:27;3.60;;;1.60;;
17330;SDS011;8783;52.448;4.638;2023-12-14T09:58:53;2.63;;;1.63;;
17330;SDS011;8783;52.448;4.638;2023-12-14T10:01:25;2.70;;;1.52;;
17330;SDS011;8783;52.448;4.638;2023-12-14T10:04:08;4.28;;;1.75;;
17330;SDS011;8783;52.448;4.638;2023-12-14T10:06:35;3.30;;;1.80;;
17330;SDS011;8783;52.448;4.638;2023-12-14T10:09:02;2.83;;;1.60;;
17330;SDS011;8783;52.448;4.638;2023-12-14T10:11:29;2.80;;;1.60;;
17330;SDS011;8783;52.448;4.638;2023-12-14T10:13:55;3.65;;;1.50;;
17330;SDS011;8783;52.448;4.638;2023-12-14T10:16:33;4.93;;;1.60;;
17330;SDS011;8783;52.448;4.638;2023-12-14T10:18:59;4.30;;;1.60;;
17330;SDS011;8783;52.448;4.638;2023-12-14T10:21:28;2.83;;;1.60;;
17330;SDS011;8783;52.448;4.638;2023-12-14T10:23:57;3.08;;;1.75;;
17330;SDS011;8783;52.448;4.638;2023-12-14T10:26:23;3.03;;;1.60;;
17330;SDS011;8783;52.448;4.638;2023-12-14T10:28:50;3.40;;;1.75;;
17330;SDS011;8783;52.448;4.638;2023-12-14T10:31:17;2.13;;;1.50;;
17330;SDS011;8783;52.448;4.638;2023-12-14T10:33:44;5.10;;;1.50;;
17330;SDS011;8783;52.448;4.638;2023-12-14T10:36:11;4.05;;;1.48;;
17330;SDS011;8783;52.448;4.638;2023-12-14T10:38:38;3.50;;;1.55;;
17330;SDS011;8783;52.448;4.638;2023-12-14T10:41:05;2.65;;;1.55;;
17330;SDS011;8783;52.448;4.638;2023-12-14T10:43:33;2.58;;;1.40;;
17330;SDS011;8783;52.448;4.638;2023-12-14T10:46:01;2.22;;;1.10;;
17330;SDS011;8783;52.448;4.638;2023-12-14T10:48:28;2.10;;;1.33;;
17330;SDS011;8783;52.448;4.638;2023-12-14T10:50:55;3.30;;;1.40;;
17330;SDS011;8783;52.448;4.638;2023-12-14T10:53:25;3.53;;;1.30;;
17330;SDS011;8783;52.448;4.638;2023-12-14T10:55:51;4.22;;;1.42;;
17330;SDS011;8783;52.448;4.638;2023-12-14T10:58:19;3.53;;;1.42;;
17330;SDS011;8783;52.448;4.638;2023-12-14T11:00:49;2.33;;;1.40;;
17330;SDS011;8783;52.448;4.638;2023-12-14T11:03:25;2.55;;;1.40;;
17330;SDS011;8783;52.448;4.638;2023-12-14T11:05:51;2.55;;;1.10;;
17330;SDS011;8783;52.448;4.638;2023-12-14T11:08:17;3.50;;;1.10;;
17330;SDS011;8783;52.448;4.638;2023-12-14T11:10:43;2.40;;;1.10;;
17330;SDS011;8783;52.448;4.638;2023-12-14T11:13:20;1.92;;;1.00;;
17330;SDS011;8783;52.448;4.638;2023-12-14T11:15:51;4.97;;;1.42;;
17330;SDS011;8783;52.448;4.638;2023-12-14T11:23:11;11.75;;;3.03;;
17330;SDS011;8783;52.448;4.638;2023-12-14T11:25:47;13.43;;;3.13;;
17330;SDS011;8783;52.448;4.638;2023-12-14T11:28:14;12.48;;;3.05;;
17330;SDS011;8783;52.448;4.638;2023-12-14T11:30:40;11.80;;;3.20;;
17330;SDS011;8783;52.448;4.638;2023-12-14T11:33:08;12.43;;;3.40;;
17330;SDS011;8783;52.448;4.638;2023-12-14T11:35:35;16.35;;;3.60;;
17330;SDS011;8783;52.448;4.638;2023-12-14T11:38:01;8.70;;;2.72;;
17330;SDS011;8783;52.448;4.638;2023-12-14T11:40:30;13.35;;;2.70;;
17330;SDS011;8783;52.448;4.638;2023-12-14T11:42:59;14.20;;;3.20;;
17330;SDS011;8783;52.448;4.638;2023-12-14T11:45:25;15.02;;;3.17;;
17330;SDS011;8783;52.448;4.638;2023-12-14T11:47:51;12.77;;;3.10;;
17330;SDS011;8783;52.448;4.638;2023-12-14T11:50:17;14.02;;;3.33;;
17330;SDS011;8783;52.448;4.638;2023-12-14T11:52:43;16.08;;;3.38;;
17330;SDS011;8783;52.448;4.638;2023-12-14T11:55:12;7.68;;;2.53;;
17330;SDS011;8783;52.448;4.638;2023-12-14T11:57:40;10.18;;;2.78;;
17330;SDS011;8783;52.448;4.638;2023-12-14T12:00:11;10.13;;;2.72;;
17330;SDS011;8783;52.448;4.638;2023-12-14T12:02:38;13.20;;;2.65;;
17330;SDS011;8783;52.448;4.638;2023-12-14T12:05:05;7.57;;;2.55;;
17330;SDS011;8783;52.448;4.638;2023-12-14T12:07:31;8.52;;;2.50;;
17330;SDS011;8783;52.448;4.638;2023-12-14T12:09:58;8.88;;;2.80;;
17330;SDS011;8783;52.448;4.638;2023-12-14T12:12:24;6.50;;;2.40;;
17330;SDS011;8783;52.448;4.638;2023-12-14T12:14:50;8.88;;;2.42;;
17330;SDS011;8783;52.448;4.638;2023-12-14T12:17:17;6.68;;;2.10;;
17330;SDS011;8783;52.448;4.638;2023-12-14T12:19:44;9.57;;;2.45;;
17330;SDS011;8783;52.448;4.638;2023-12-14T12:22:10;7.65;;;2.35;;
17330;SDS011;8783;52.448;4.638;2023-12-14T12:24:36;8.43;;;2.10;;
17330;SDS011;8783;52.448;4.638;2023-12-14T12:27:02;7.40;;;2.15;;
17330;SDS011;8783;52.448;4.638;2023-12-14T12:29:29;7.68;;;2.05;;
17330;SDS011;8783;52.448;4.638;2023-12-14T12:31:54;6.53;;;2.05;;
17330;SDS011;8783;52.448;4.638;2023-12-14T12:34:20;5.00;;;1.85;;
17330;SDS011;8783;52.448;4.638;2023-12-14T12:36:46;7.85;;;1.90;;
17330;SDS011;8783;52.448;4.638;2023-12-14T12:39:11;5.93;;;1.75;;
17330;SDS011;8783;52.448;4.638;2023-12-14T12:41:37;7.35;;;2.35;;
17330;SDS011;8783;52.448;4.638;2023-12-14T12:44:03;5.25;;;1.90;;
17330;SDS011;8783;52.448;4.638;2023-12-14T12:46:37;5.53;;;1.80;;
17330;SDS011;8783;52.448;4.638;2023-12-14T12:49:06;4.88;;;1.90;;
17330;SDS011;8783;52.448;4.638;2023-12-14T12:51:31;4.80;;;1.90;;
17330;SDS011;8783;52.448;4.638;2023-12-14T12:53:58;7.22;;;1.75;;
17330;SDS011;8783;52.448;4.638;2023-12-14T12:56:25;7.45;;;2.10;;
17330;SDS011;8783;52.448;4.638;2023-12-14T12:58:54;5.32;;;1.92;;
17330;SDS011;8783;52.448;4.638;2023-12-14T13:01:22;6.60;;;1.75;;
17330;SDS011;8783;52.448;4.638;2023-12-14T13:03:52;4.68;;;1.58;;
17330;SDS011;8783;52.448;4.638;2023-12-14T13:06:20;6.25;;;1.50;;
17330;SDS011;8783;52.448;4.638;2023-12-14T13:08:46;9.27;;;1.40;;
17330;SDS011;8783;52.448;4.638;2023-12-14T13:11:11;5.93;;;1.20;;
17330;SDS011;8783;52.448;4.638;2023-12-14T13:13:37;4.47;;;1.45;;
17330;SDS011;8783;52.448;4.638;2023-12-14T13:16:02;3.28;;;1.55;;
17330;SDS011;8783;52.448;4.638;2023-12-14T13:18:28;9.10;;;1.70;;
17330;SDS011;8783;52.448;4.638;2023-12-14T13:20:54;10.35;;;1.60;;
17330;SDS011;8783;52.448;4.638;2023-12-14T13:23:19;8.35;;;1.70;;
17330;SDS011;8783;52.448;4.638;2023-12-14T13:25:45;6.10;;;1.95;;
17330;SDS011;8783;52.448;4.638;2023-12-14T13:28:11;8.40;;;1.95;;
17330;SDS011;8783;52.448;4.638;2023-12-14T13:30:38;7.57;;;1.55;;
17330;SDS011;8783;52.448;4.638;2023-12-14T13:33:04;6.63;;;1.48;;
17330;SDS011;8783;52.448;4.638;2023-12-14T13:35:31;7.38;;;1.50;;
17330;SDS011;8783;52.448;4.638;2023-12-14T13:37:57;4.97;;;1.52;;
17330;SDS011;8783;52.448;4.638;2023-12-14T13:40:22;3.38;;;1.23;;
17330;SDS011;8783;52.448;4.638;2023-12-14T13:42:48;5.82;;;1.80;;
17330;SDS011;8783;52.448;4.638;2023-12-14T13:45:14;8.85;;;1.80;;
17330;SDS011;8783;52.448;4.638;2023-12-14T13:47:39;5.32;;;1.23;;
17330;SDS011;8783;52.448;4.638;2023-12-14T13:50:05;6.28;;;1.40;;
17330;SDS011;8783;52.448;4.638;2023-12-14T13:52:31;3.53;;;1.40;;
17330;SDS011;8783;52.448;4.638;2023-12-14T13:54:57;3.80;;;1.33;;
17330;SDS011;8783;52.448;4.638;2023-12-14T13:57:24;2.67;;;1.10;;
17330;SDS011;8783;52.448;4.638;2023-12-14T13:59:49;2.53;;;1.05;;
17330;SDS011;8783;52.448;4.638;2023-12-14T14:02:15;4.30;;;1.35;;
17330;SDS011;8783;52.448;4.638;2023-12-14T14:04:41;3.50;;;1.40;;
17330;SDS011;8783;52.448;4.638;2023-12-14T14:07:06;4.22;;;1.10;;
17330;SDS011;8783;52.448;4.638;2023-12-14T14:09:32;5.70;;;1.40;;
17330;SDS011;8783;52.448;4.638;2023-12-14T14:11:58;5.78;;;1.13;;
17330;SDS011;8783;52.448;4.638;2023-12-14T14:14:23;3.70;;;1.17;;
17330;SDS011;8783;52.448;4.638;2023-12-14T14:16:49;5.80;;;1.55;;
17330;SDS011;8783;52.448;4.638;2023-12-14T14:19:15;3.47;;;1.27;;
17330;SDS011;8783;52.448;4.638;2023-12-14T14:21:40;3.35;;;1.30;;
17330;SDS011;8783;52.448;4.638;2023-12-14T14:24:06;3.45;;;1.27;;
17330;SDS011;8783;52.448;4.638;2023-12-14T14:26:32;3.75;;;1.20;;
17330;SDS011;8783;52.448;4.638;2023-12-14T14:28:57;2.15;;;1.00;;
17330;SDS011;8783;52.448;4.638;2023-12-14T14:31:27;3.38;;;1.30;;
17330;SDS011;8783;52.448;4.638;2023-12-14T14:34:00;3.45;;;1.30;;
17330;SDS011;8783;52.448;4.638;2023-12-14T14:36:25;3.85;;;1.60;;
17330;SDS011;8783;52.448;4.638;2023-12-14T14:38:51;3.75;;;1.48;;
17330;SDS011;8783;52.448;4.638;2023-12-14T14:41:19;3.70;;;1.10;;
17330;SDS011;8783;52.448;4.638;2023-12-14T14:43:45;7.22;;;1.45;;
17330;SDS011;8783;52.448;4.638;2023-12-14T14:46:11;2.42;;;1.05;;
17330;SDS011;8783;52.448;4.638;2023-12-14T14:48:36;3.05;;;1.10;;
17330;SDS011;8783;52.448;4.638;2023-12-14T14:51:06;2.58;;;1.13;;
17330;SDS011;8783;52.448;4.638;2023-12-14T14:53:31;3.78;;;1.10;;
17330;SDS011;8783;52.448;4.638;2023-12-14T14:55:57;3.40;;;1.13;;
17330;SDS011;8783;52.448;4.638;2023-12-14T14:58:23;2.90;;;1.08;;